createdAt,value
2022-11-14T00:00:57.347Z,387.16547
2022-11-14T00:05:59.017Z,224
2022-11-14T00:11:00.646Z,470.49573
2022-11-14T00:16:02.320Z,414.22901
2022-11-14T00:21:03.948Z,351.94702
2022-11-14T00:26:05.584Z,275.1828
2022-11-14T00:31:07.263Z,542.05825
2022-11-14T00:36:08.959Z,324.24691
2022-11-14T00:41:10.586Z,336.35669
2022-11-14T00:46:12.315Z,525.13208
2022-11-14T00:51:13.981Z,644
2022-11-14T00:56:15.633Z,530.66667
2022-11-14T01:01:17.467Z,560
2022-11-14T01:06:19.254Z,695.21951
2022-11-14T01:11:21.020Z,498.95495
2022-11-14T01:16:22.841Z,519.70093
2022-11-14T01:21:24.558Z,475.03448
2022-11-14T01:26:26.458Z,436.8
2022-11-14T01:31:28.255Z,390.37681
2022-11-14T01:36:30.015Z,374.76923
2022-11-14T01:41:31.977Z,308.49704
2022-11-14T01:46:33.789Z,414.22901
2022-11-14T01:51:35.368Z,360.21622
2022-11-14T01:56:37.084Z,312.86228
2022-11-14T02:01:39.108Z,400.2963
2022-11-14T02:06:40.838Z,566.22222
2022-11-14T02:11:42.520Z,686.16867
2022-11-14T02:17:00.850Z,453.09091
2022-11-14T02:22:16.514Z,466.0339
2022-11-14T02:27:18.142Z,542.05825
2022-11-14T02:32:19.771Z,421.51938
2022-11-14T02:37:21.621Z,453.09091
2022-11-14T02:42:23.281Z,498.95495
2022-11-14T02:47:24.920Z,606.36559
2022-11-14T02:52:26.634Z,628.44444
2022-11-14T02:57:28.281Z,644
2022-11-14T03:02:30.073Z,360.21622
2022-11-14T03:07:31.847Z,466.0339
2022-11-14T03:12:33.640Z,417.84615
2022-11-14T03:17:35.385Z,407.15789
2022-11-14T03:22:37.045Z,189.41833
2022-11-14T03:27:38.850Z,233.20188
2022-11-14T03:32:40.591Z,319.60976
2022-11-14T03:37:42.289Z,494
2022-11-14T03:42:43.960Z,444.81301
2022-11-14T03:47:45.621Z,519.70093
2022-11-14T03:52:47.403Z,263.17098
2022-11-14T03:57:49.233Z,836.75362
2022-11-14T04:02:50.886Z,849.88235
2022-11-14T04:07:52.712Z,714
2022-11-14T04:12:54.425Z,566.22222
2022-11-14T04:17:56.224Z,315.08434
2022-11-14T04:22:58.804Z,278.78261
2022-11-14T04:28:00.462Z,457.33333
2022-11-14T04:33:02.299Z,636.13483
2022-11-14T04:38:04.120Z,547.92157
2022-11-14T04:43:05.823Z,542.05825
2022-11-14T04:48:07.839Z,525.13208
2022-11-14T04:53:09.574Z,384
2022-11-14T04:58:11.466Z,324.24691
2022-11-14T05:03:14.063Z,292.0226
2022-11-14T05:08:15.899Z,212.99563
2022-11-14T05:13:18.035Z,183.68872
2022-11-14T05:18:20.220Z,250.46766
2022-11-14T05:23:21.969Z,227.87097
2022-11-14T05:28:23.688Z,278.78261
2022-11-14T05:33:25.614Z,319.60976
2022-11-14T05:38:28.459Z,365.91781
2022-11-14T05:43:30.449Z,498.95495
2022-11-14T05:48:32.698Z,466.0339
2022-11-14T05:53:34.680Z,384
2022-11-14T05:58:36.709Z,440.77419
2022-11-14T06:03:38.453Z,365.91781
2022-11-14T06:08:40.692Z,436.8
2022-11-14T06:13:42.421Z,248.9505
2022-11-14T06:18:44.184Z,341.41935
2022-11-14T06:23:46.826Z,414.22901
2022-11-14T06:28:48.564Z,440.77419
2022-11-14T06:33:50.351Z,290.06742
2022-11-14T06:38:52.336Z,180.92308
2022-11-14T06:43:53.963Z,269.92593
2022-11-14T06:48:55.601Z,403.70149
2022-11-14T06:53:57.274Z,417.84615
2022-11-14T06:58:58.892Z,403.70149
2022-11-14T07:04:00.805Z,417.84615
2022-11-14T07:09:02.694Z,606.36559
2022-11-14T07:14:04.912Z,652.04598
2022-11-14T07:19:06.766Z,695.21951
2022-11-14T07:24:08.501Z,572.57143
2022-11-14T07:29:10.551Z,542.05825
2022-11-14T07:34:13.527Z,585.66667
2022-11-14T07:39:15.243Z,579.05155
2022-11-14T07:44:17.035Z,652.04598
2022-11-14T07:49:18.961Z,509.13761
2022-11-14T07:54:20.673Z,553.90099
2022-11-14T07:59:22.337Z,448.91803
2022-11-14T08:04:24.141Z,407.15789
2022-11-14T08:09:26.016Z,498.95495
2022-11-14T08:14:27.905Z,585.66667
2022-11-14T08:19:29.706Z,504
2022-11-14T08:24:31.345Z,393.63504
2022-11-14T08:29:32.987Z,387.16547
2022-11-14T08:34:34.926Z,326.6087
2022-11-14T08:39:36.688Z,321.91411
2022-11-14T08:44:38.314Z,363.04762
2022-11-14T08:49:39.956Z,457.33333
2022-11-14T08:54:41.652Z,384
2022-11-14T08:59:43.334Z,484.35088
2022-11-14T09:04:45.339Z,475.03448
2022-11-14T09:09:47.147Z,514.37037
2022-11-14T09:14:48.920Z,620.92308
2022-11-14T09:19:50.835Z,579.05155
2022-11-14T09:24:56.246Z,636.13483
2022-11-14T09:29:57.995Z,566.22222
2022-11-14T09:34:59.639Z,489.13274
2022-11-14T09:40:01.359Z,448.91803
2022-11-14T09:45:03.041Z,509.13761
2022-11-14T09:50:04.693Z,599.31915
2022-11-14T09:55:06.337Z,652.04598
2022-11-14T10:00:08.068Z,628.44444
2022-11-14T10:05:09.774Z,652.04598
2022-11-14T10:10:11.405Z,686.16867
2022-11-14T10:15:13.055Z,636.13483
2022-11-14T10:20:14.715Z,620.92308
2022-11-14T10:25:16.411Z,542.05825
2022-11-14T10:30:18.078Z,628.44444
2022-11-14T10:35:20.282Z,620.92308
2022-11-14T10:40:21.995Z,636.13483
2022-11-14T10:45:23.961Z,628.44444
2022-11-14T10:50:25.690Z,636.13483
2022-11-14T10:55:50.114Z,579.05155
2022-11-14T11:00:59.641Z,572.57143
2022-11-14T11:06:01.387Z,572.57143
2022-11-14T11:11:03.067Z,525.13208
2022-11-14T11:16:04.784Z,504
2022-11-14T11:21:06.457Z,572.57143
2022-11-14T11:26:08.247Z,613.56522
2022-11-14T11:31:09.944Z,599.31915
2022-11-14T11:36:11.655Z,566.22222
2022-11-14T11:41:26.021Z,542.05825
2022-11-14T11:46:44.288Z,585.66667
2022-11-14T11:51:45.923Z,579.05155
2022-11-14T11:56:47.563Z,592.42105
2022-11-14T12:01:49.249Z,572.57143
2022-11-14T12:06:51.022Z,652.04598
2022-11-14T12:11:52.789Z,695.21951
2022-11-14T12:16:55.224Z,660.27907
2022-11-14T12:21:58.857Z,628.44444
2022-11-14T12:27:00.997Z,686.16867
2022-11-14T12:32:02.632Z,704.49383
2022-11-14T12:37:04.379Z,677.33333
2022-11-14T12:42:06.526Z,613.56522
2022-11-14T12:47:08.428Z,572.57143
2022-11-14T12:52:10.167Z,560
2022-11-14T12:57:11.909Z,425.25
2022-11-14T13:02:17.988Z,530.66667
2022-11-14T13:07:23.136Z,440.77419
2022-11-14T13:12:24.837Z,425.25
2022-11-14T13:17:26.534Z,368.82759
2022-11-14T13:22:28.537Z,479.65217
2022-11-14T13:27:52.321Z,479.65217
2022-11-14T13:33:02.380Z,390.37681
2022-11-14T13:38:04.235Z,429.03937
2022-11-14T13:43:06.016Z,436.8
2022-11-14T13:48:07.667Z,390.37681
2022-11-14T13:53:09.474Z,306.35294
2022-11-14T13:58:11.145Z,324.24691
2022-11-14T14:03:12.815Z,360.21622
2022-11-14T14:08:14.414Z,317.33333
2022-11-14T14:13:16.092Z,280.61202
2022-11-14T14:18:17.714Z,304.23392
2022-11-14T14:23:19.330Z,321.91411
2022-11-14T14:28:21.005Z,264.83333
2022-11-14T14:33:22.648Z,247.44828
2022-11-14T14:38:24.437Z,255.11111
2022-11-14T14:43:26.144Z,302.13953
2022-11-14T14:48:27.954Z,258.28571
2022-11-14T14:53:29.851Z,280.61202
2022-11-14T14:58:31.852Z,338.87179
2022-11-14T15:03:36.840Z,324.24691
2022-11-14T15:08:39.130Z,357.42282
2022-11-14T15:13:40.743Z,457.33333
2022-11-14T15:18:42.427Z,360.21622
2022-11-14T15:23:44.067Z,387.16547
2022-11-14T15:28:45.725Z,484.35088
2022-11-14T15:33:47.368Z,432.88889
2022-11-14T15:38:49.047Z,542.05825
2022-11-14T15:43:50.709Z,585.66667
2022-11-14T15:48:52.453Z,628.44444
2022-11-14T15:53:54.056Z,579.05155
2022-11-14T15:58:55.728Z,542.05825
2022-11-14T16:03:57.396Z,542.05825
2022-11-14T16:08:58.986Z,470.49573
2022-11-14T16:14:00.657Z,461.64706
2022-11-14T16:19:02.364Z,444.81301
2022-11-14T16:24:04.409Z,432.88889
2022-11-14T16:29:06.094Z,494
2022-11-14T16:34:07.795Z,444.81301
2022-11-14T16:39:09.464Z,504
2022-11-14T16:44:11.302Z,536.30769
2022-11-14T16:49:12.940Z,504
2022-11-14T16:54:14.544Z,606.36559
2022-11-14T16:59:16.276Z,677.33333
2022-11-14T17:04:18.034Z,553.90099
2022-11-14T17:09:19.640Z,542.05825
2022-11-14T17:14:21.239Z,547.92157
2022-11-14T17:19:23.044Z,599.31915
2022-11-14T17:24:30.014Z,572.57143
2022-11-14T17:29:33.061Z,479.65217
2022-11-14T17:34:34.928Z,484.35088
2022-11-14T17:39:36.597Z,470.49573
2022-11-14T17:44:38.223Z,466.0339
2022-11-14T17:49:39.952Z,470.49573
2022-11-14T17:54:41.711Z,479.65217
2022-11-14T17:59:43.418Z,519.70093
2022-11-14T18:04:45.161Z,530.66667
2022-11-14T18:09:46.844Z,457.33333
2022-11-14T18:14:48.449Z,553.90099
2022-11-14T18:19:50.072Z,484.35088
2022-11-14T18:24:51.658Z,331.42138
2022-11-14T18:29:53.259Z,282.46154
2022-11-14T18:34:54.842Z,414.22901
2022-11-14T18:39:56.602Z,686.16867
2022-11-14T18:44:58.232Z,668.70588
2022-11-14T18:49:59.849Z,572.57143
2022-11-14T18:55:01.493Z,504
2022-11-14T19:00:03.209Z,547.92157
2022-11-14T19:05:04.972Z,542.05825
2022-11-14T19:10:06.605Z,547.92157
2022-11-14T19:15:08.214Z,579.05155
2022-11-14T19:20:14.142Z,572.57143
2022-11-14T19:25:16.603Z,652.04598
2022-11-14T19:30:18.252Z,613.56522
2022-11-14T19:35:20.571Z,542.05825
2022-11-14T19:40:22.663Z,668.70588
2022-11-14T19:45:24.291Z,714
2022-11-14T19:50:25.913Z,765.33333
2022-11-14T19:55:27.549Z,660.27907
2022-11-14T20:00:29.152Z,714
2022-11-14T20:05:30.892Z,668.70588
2022-11-14T20:10:32.552Z,765.33333
2022-11-14T20:15:34.145Z,714
2022-11-14T20:20:35.800Z,776.43243
2022-11-14T20:25:37.472Z,787.83562
2022-11-14T20:30:39.127Z,811.60563
2022-11-14T20:35:40.752Z,799.55556
2022-11-14T20:40:42.378Z,776.43243
2022-11-14T20:45:44.026Z,704.49383
2022-11-14T20:50:45.630Z,799.55556
2022-11-14T20:55:47.235Z,765.33333
2022-11-14T21:00:48.939Z,921.77778
2022-11-14T21:05:50.570Z,1064
2022-11-14T21:10:52.331Z,787.83562
2022-11-14T21:15:54.030Z,1151.84314
2022-11-14T21:20:55.675Z,1312.88889
2022-11-14T21:25:57.363Z,1376.55814
2022-11-14T21:30:59.025Z,1344
2022-11-14T21:36:11.350Z,1128.61538
2022-11-14T21:41:31.810Z,1084.74074
2022-11-14T21:46:33.435Z,1044
2022-11-14T21:51:35.061Z,1064
2022-11-14T21:56:36.761Z,1283.13043
2022-11-14T22:01:38.459Z,1410.66667
2022-11-14T22:06:40.387Z,1312.88889
2022-11-14T22:11:42.150Z,1565.05263
2022-11-14T22:16:43.781Z,1312.88889
2022-11-14T22:21:45.468Z,1044
2022-11-14T22:26:47.207Z,1344
2022-11-14T22:31:48.820Z,1410.66667
2022-11-14T22:36:50.488Z,1410.66667
2022-11-14T22:41:56.567Z,1376.55814
2022-11-14T22:46:58.266Z,1283.13043
2022-11-14T22:51:59.895Z,1312.88889
2022-11-14T22:57:01.525Z,1376.55814
2022-11-14T23:02:03.285Z,1344
2022-11-14T23:07:05.031Z,1201.14286
2022-11-14T23:12:06.688Z,1151.84314
2022-11-14T23:17:08.322Z,1283.13043
2022-11-14T23:22:09.941Z,1312.88889
2022-11-14T23:27:11.737Z,1655.11111
2022-11-14T23:32:13.393Z,1755.76471
2022-11-14T23:37:15.022Z,1810.66667
2022-11-14T23:42:16.699Z,1869
2022-11-14T23:47:18.409Z,1869
2022-11-14T23:52:20.039Z,1704
2022-11-14T23:57:21.764Z,1608.86486
